MSC Suez — HPMS — position and weather

sailwx.info

Track history (hours):
 
Tides and Currents Weather Stations Pressure Air Temp Water Temp Dewpoint Dewpoint Depression Visibility Wind Speed Wind Dir Waves Ship Positions

MSC Suez

Last reported at 2017-Jun-22 16:30 UTC. Time now 2017-Jun-24 12:09 UTC.
Position N 24°38' W 016°24'.

Length 237 m; draft 10.6 m.

Type: Ship. MMSI: 355289000.

Date/timePositionNaut miles runAvg speedWind from/ knotsBaromVisibWave heightAir tempDewpointWater temp
2017-Jun-22 16:30N 24°38' W 016°24'5612.1
2017-Jun-22 11:55N 25°31' W 016°03'812.5
2017-Jun-22 11:16N 25°38' W 016°00'512.4
2017-Jun-22 10:51N 25°43' W 015°58'512.5
2017-Jun-22 10:29N 25°47' W 015°56'912.5
2017-Jun-22 09:46N 25°56' W 015°53'312.6
2017-Jun-22 09:30N 25°59' W 015°52'612.5
2017-Jun-22 09:00N 26°05' W 015°49'816.0
2017-Jun-22 08:30N 26°12' W 015°46'918.7
2017-Jun-22 08:00N 26°21' W 015°43'917.2
2017-Jun-22 07:30N 26°29' W 015°40'916.9
2017-Jun-22 06:58N 26°38' W 015°36'816.8
2017-Jun-22 06:31N 26°45' W 015°33'1916.9
2017-Jun-22 05:24N 27°03' W 015°27'817.1
2017-Jun-22 04:56N 27°10' W 015°24'1117.3
2017-Jun-22 04:19N 27°20' W 015°20'517.4
2017-Jun-22 04:00N 27°26' W 015°18'917.3
2017-Jun-22 03:30N 27°34' W 015°15'917.4
2017-Jun-22 03:00N 27°42' W 015°12'917.5
2017-Jun-22 02:30N 27°50' W 015°08'917.2
2017-Jun-22 02:00N 27°58' W 015°05'816.8
2017-Jun-22 01:30N 28°06' W 015°01'816.8
2017-Jun-22 01:00N 28°14' W 014°59'816.5
2017-Jun-22 00:30N 28°22' W 014°56'816.4
2017-Jun-22 00:00N 28°30' W 014°54'916.5
2017-Jun-21 23:28N 28°39' W 014°51'816.6
2017-Jun-21 23:01N 28°46' W 014°49'816.4
2017-Jun-21 22:30N 28°54' W 014°47'816.2
2017-Jun-21 22:01N 29°02' W 014°44'916.3
2017-Jun-21 21:28N 29°10' W 014°42'816.1
2017-Jun-21 20:57N 29°18' W 014°39'715.9
2017-Jun-21 20:30N 29°25' W 014°37'815.6
2017-Jun-21 20:00N 29°33' W 014°35'815.6
2017-Jun-21 19:30N 29°41' W 014°33'714.4
2017-Jun-21 19:00N 29°47' W 014°31'611.6
2017-Jun-21 18:30N 29°53' W 014°29'711.8
2017-Jun-21 17:54N 30°00' W 014°27'512.0
2017-Jun-21 17:30N 30°05' W 014°26'611.9
2017-Jun-21 17:00N 30°10' W 014°25'612.1
2017-Jun-21 16:30N 30°16' W 014°23'611.9
2017-Jun-21 15:58N 30°23' W 014°21'612.3
2017-Jun-21 15:27N 30°29' W 014°19'612.1
2017-Jun-21 14:58N 30°34' W 014°18'43413.8
2017-Jun-20 07:32N 37°36' W 012°15'118.2
2017-Jun-20 07:30N 37°37' W 012°15'10116.4
2017-Jun-20 01:19N 39°15' W 011°45'516.3
2017-Jun-20 01:00N 39°20' W 011°43'1216.2
2017-Jun-20 00:16N 39°32' W 011°39'716.3
2017-Jun-19 23:50N 39°39' W 011°37'516.5
2017-Jun-19 23:30N 39°44' W 011°36'816.6
2017-Jun-19 23:01N 39°52' W 011°33'816.8
2017-Jun-19 22:30N 40°00' W 011°30'816.9
2017-Jun-19 22:00N 40°08' W 011°28'816.8
2017-Jun-19 21:31N 40°17' W 011°25'816.7
2017-Jun-19 21:00N 40°25' W 011°23'816.6
2017-Jun-19 20:30N 40°33' W 011°20'816.5
2017-Jun-19 20:00N 40°41' W 011°17'916.8
2017-Jun-19 19:28N 40°50' W 011°15'816.5
2017-Jun-19 19:00N 40°57' W 011°12'916.3
2017-Jun-19 18:29N 41°05' W 011°09'613.2
2017-Jun-19 18:00N 41°11' W 011°07'611.8
2017-Jun-19 17:29N 41°17' W 011°06'611.6
2017-Jun-19 17:00N 41°23' W 011°04'611.5
2017-Jun-19 16:30N 41°29' W 011°02'711.8
2017-Jun-19 15:54N 41°35' W 010°60'11312.6
2017-Jun-19 06:56N 43°25' W 010°24'716.5
2017-Jun-19 06:30N 43°32' W 010°22'1416.4
2017-Jun-19 05:37N 43°46' W 010°17'316.2
2017-Jun-19 05:28N 43°49' W 010°16'1216.2
2017-Jun-19 04:44N 43°59' W 010°08'1316.3
2017-Jun-19 03:56N 44°10' W 009°59'716.0
2017-Jun-19 03:30N 44°16' W 009°53'916.2
2017-Jun-19 02:57N 44°23' W 009°46'31214.2
2017-Jun-18 04:57N 48°50' W 005°50'716.4
2017-Jun-18 04:30N 48°56' W 005°43'816.9
2017-Jun-18 04:01N 48°60' W 005°32'917.0
2017-Jun-18 03:30N 49°04' W 005°21'817.0
2017-Jun-18 03:00N 49°09' W 005°10'816.9
2017-Jun-18 02:30N 49°13' W 004°59'816.6
2017-Jun-18 02:00N 49°17' W 004°48'816.4
2017-Jun-18 01:31N 49°22' W 004°37'816.1
2017-Jun-18 01:01N 49°26' W 004°27'815.8
2017-Jun-18 00:30N 49°30' W 004°16'815.7
2017-Jun-18 00:00N 49°34' W 004°06'815.6
2017-Jun-17 23:30N 49°38' W 003°55'815.6
2017-Jun-17 23:00N 49°42' W 003°45'815.7
2017-Jun-17 22:30N 49°46' W 003°35'816.0
2017-Jun-17 22:00N 49°50' W 003°24'816.3
2017-Jun-17 21:30N 49°54' W 003°13'816.8
2017-Jun-17 21:00N 49°58' W 003°02'917.2
2017-Jun-17 20:30N 50°01' W 002°49'917.9
2017-Jun-17 20:00N 50°03' W 002°36'918.3
2017-Jun-17 19:30N 50°06' W 002°22'918.6
2017-Jun-17 19:00N 50°08' W 002°08'918.6
2017-Jun-17 18:30N 50°10' W 001°54'918.3
2017-Jun-17 18:00N 50°13' W 001°40'917.8
2017-Jun-17 17:30N 50°15' W 001°27'917.3
2017-Jun-17 17:01N 50°17' W 001°13'816.7
2017-Jun-17 16:30N 50°19' W 001°01'815.9
2017-Jun-17 16:00N 50°21' W 000°49'815.3
2017-Jun-17 15:30N 50°23' W 000°37'815.1
2017-Jun-17 15:01N 50°25' W 000°26'714.9
2017-Jun-17 14:30N 50°27' W 000°14'1514.9
2017-Jun-17 13:30N 50°31' E 000°08'715.0
2017-Jun-17 13:00N 50°33' E 000°20'815.3
2017-Jun-17 12:30N 50°35' E 000°31'816.0
2017-Jun-17 12:00N 50°39' E 000°42'916.8
2017-Jun-17 11:28N 50°44' E 000°54'817.4
2017-Jun-17 11:00N 50°48' E 001°05'917.6
2017-Jun-17 10:30N 50°53' E 001°16'918.1
2017-Jun-17 10:00N 51°00' E 001°25'917.0
2017-Jun-17 09:30N 51°06' E 001°35'816.4
2017-Jun-17 09:00N 51°12' E 001°45'815.9
2017-Jun-17 08:30N 51°18' E 001°51'715.0
2017-Jun-17 08:00N 51°24' E 001°59'714.8
2017-Jun-17 07:30N 51°22' E 002°10'714.8
2017-Jun-17 07:00N 51°22' E 002°22'715.0
2017-Jun-17 06:30N 51°23' E 002°34'713.6
2017-Jun-17 06:01N 51°23' E 002°45'611.8
2017-Jun-17 05:31N 51°23' E 002°54'815.5
2017-Jun-17 05:01N 51°24' E 003°06'815.2
2017-Jun-17 04:30N 51°24' E 003°18'714.8
2017-Jun-17 04:00N 51°25' E 003°30'5 9.1
2017-Jun-17 03:30N 51°26' E 003°37'611.3
2017-Jun-17 03:00N 51°22' E 003°44'612.6
2017-Jun-17 02:30N 51°22' E 003°54'612.2
2017-Jun-17 02:01N 51°26' E 004°01'611.1
2017-Jun-17 01:30N 51°22' E 004°08'5 9.9
2017-Jun-17 01:00N 51°21' E 004°16'3 6.7
2017-Jun-17 00:30N 51°17' E 004°15'0 0.8
2017-Jun-16 23:58N 51°17' E 004°15'0 0.0
2017-Jun-16 23:25N 51°17' E 004°15'0 0.0
2017-Jun-16 23:00N 51°17' E 004°15'0 0.0
2017-Jun-16 22:30N 51°17' E 004°15'0 0.0
2017-Jun-16 22:00N 51°17' E 004°15'0 0.0
2017-Jun-16 21:30N 51°17' E 004°15'0 0.0
2017-Jun-16 21:00N 51°17' E 004°15'0 0.0
2017-Jun-16 20:30N 51°17' E 004°15'0 0.0
2017-Jun-16 20:00N 51°17' E 004°15'0 0.0
2017-Jun-16 19:30N 51°17' E 004°15'0 0.0
2017-Jun-16 19:00N 51°17' E 004°15'0 0.0
2017-Jun-16 18:31N 51°17' E 004°15'0 0.0
2017-Jun-16 18:00N 51°17' E 004°15'0 0.0
2017-Jun-16 17:30N 51°17' E 004°15'0 0.0
2017-Jun-16 17:00N 51°17' E 004°15'0 0.0
2017-Jun-16 16:30N 51°17' E 004°15'0 0.0
2017-Jun-16 16:00N 51°17' E 004°15'0 0.0
2017-Jun-16 15:30N 51°17' E 004°15'0 0.0
2017-Jun-16 15:00N 51°17' E 004°15'1 1.1
2017-Jun-16 14:30N 51°17' E 004°16'1 0.7
2017-Jun-16 13:30N 51°18' E 004°16'0 0.0
2017-Jun-16 13:00N 51°18' E 004°16'0 0.0
2017-Jun-16 12:30N 51°18' E 004°16'0 0.0
2017-Jun-16 12:00N 51°18' E 004°16'0 0.0
2017-Jun-16 11:30N 51°18' E 004°16'0 0.0
2017-Jun-16 11:00N 51°18' E 004°16'0 0.0
2017-Jun-16 10:30N 51°18' E 004°16'0 0.0
2017-Jun-16 10:00N 51°18' E 004°16'0 0.0
2017-Jun-16 09:30N 51°18' E 004°16'0 0.0
2017-Jun-16 09:00N 51°18' E 004°16'0 0.0
2017-Jun-16 08:30N 51°18' E 004°16'0 0.0
2017-Jun-16 07:54N 51°18' E 004°16'0 0.0
2017-Jun-16 07:30N 51°18' E 004°16'0 0.0
2017-Jun-16 07:00N 51°18' E 004°16'0 0.0
2017-Jun-16 06:27N 51°18' E 004°16'0 0.0
2017-Jun-16 06:00N 51°18' E 004°16'0 0.0
2017-Jun-16 05:30N 51°18' E 004°16'0 0.0
2017-Jun-16 05:00N 51°18' E 004°16'0 0.0
2017-Jun-16 04:30N 51°18' E 004°16'0 0.0
2017-Jun-16 03:57N 51°18' E 004°16'0 0.0
2017-Jun-16 03:30N 51°18' E 004°16'0 0.0
2017-Jun-16 03:00N 51°18' E 004°16'0 0.0
2017-Jun-16 02:30N 51°18' E 004°16'0 0.0
2017-Jun-16 02:00N 51°18' E 004°16'0 0.0
2017-Jun-16 01:30N 51°18' E 004°16'0 0.0
2017-Jun-16 01:00N 51°18' E 004°16'0 0.0
2017-Jun-16 00:27N 51°18' E 004°16'0 0.0
2017-Jun-16 00:00N 51°18' E 004°16'0 0.0
2017-Jun-15 23:30N 51°18' E 004°16'0 0.0
2017-Jun-15 23:00N 51°18' E 004°16'0 0.0
2017-Jun-15 22:30N 51°18' E 004°16'0 0.0
2017-Jun-15 22:00N 51°18' E 004°16'0 0.0
2017-Jun-15 21:30N 51°18' E 004°16'0 0.0
2017-Jun-15 20:57N 51°18' E 004°16'0 0.0
2017-Jun-15 20:30N 51°18' E 004°16'0 0.0
2017-Jun-15 20:00N 51°18' E 004°16'0 0.0
2017-Jun-15 19:30N 51°18' E 004°16'1 1.7
2017-Jun-15 19:00N 51°19' E 004°16'3 6.8
2017-Jun-15 18:30N 51°22' E 004°13'4 7.8
2017-Jun-15 18:00N 51°22' E 004°07'5 9.5
2017-Jun-15 17:30N 51°25' E 004°02'510.8
2017-Jun-15 17:00N 51°22' E 003°55'612.1
2017-Jun-15 16:30N 51°22' E 003°45'612.1
2017-Jun-15 16:00N 51°26' E 003°39'917.1
2017-Jun-15 15:30N 51°25' E 003°26'918.6
2017-Jun-15 15:01N 51°24' E 003°11'1616.1
2017-Jun-15 14:00N 51°24' E 002°45'4 7.4
2017-Jun-15 13:31N 51°26' E 002°41'1 1.0
2017-Jun-15 13:00N 51°26' E 002°40'0 0.1
2017-Jun-15 12:30N 51°26' E 002°40'0 0.1
2017-Jun-15 12:00N 51°26' E 002°40'0 0.1
2017-Jun-15 11:30N 51°26' E 002°40'0 0.0
2017-Jun-15 11:00N 51°26' E 002°40'0 0.0
2017-Jun-15 10:30N 51°26' E 002°40'0 0.3
2017-Jun-15 10:00N 51°26' E 002°40'0 0.3
2017-Jun-15 09:30N 51°26' E 002°40'0 0.1
2017-Jun-15 09:00N 51°26' E 002°40'0 0.1
2017-Jun-15 08:30N 51°26' E 002°40'0 0.0
2017-Jun-15 08:00N 51°26' E 002°40'0 0.0
2017-Jun-15 07:30N 51°26' E 002°40'0 0.0
2017-Jun-15 07:00N 51°26' E 002°40'0 0.1
2017-Jun-15 06:30N 51°26' E 002°40'0 0.0
2017-Jun-15 06:00N 51°26' E 002°40'0 0.0
2017-Jun-15 05:30N 51°26' E 002°40'0 0.0
2017-Jun-15 05:00N 51°26' E 002°40'0 0.0
2017-Jun-15 04:30N 51°26' E 002°40'0 0.0
2017-Jun-15 04:00N 51°26' E 002°40'0 0.0
2017-Jun-15 03:27N 51°26' E 002°40'0 0.0
2017-Jun-15 03:00N 51°26' E 002°40'0 0.2
2017-Jun-15 02:30N 51°26' E 002°40'0 0.3
2017-Jun-15 02:00N 51°26' E 002°40'0 0.3
2017-Jun-15 01:30N 51°26' E 002°40'0 0.1
2017-Jun-15 01:00N 51°26' E 002°40'0 0.0
2017-Jun-15 00:30N 51°26' E 002°40'0 0.0
2017-Jun-15 00:00N 51°26' E 002°40'0 0.0
2017-Jun-14 23:30N 51°26' E 002°40'0 0.0
2017-Jun-14 23:00N 51°26' E 002°40'0 0.0
2017-Jun-14 22:30N 51°26' E 002°40'0 0.0
2017-Jun-14 22:00N 51°26' E 002°40'0 0.0
2017-Jun-14 21:30N 51°26' E 002°40'0 0.0
2017-Jun-14 21:00N 51°26' E 002°40'0 0.0
2017-Jun-14 20:30N 51°26' E 002°40'0 0.0
2017-Jun-14 20:00N 51°26' E 002°40'0 0.0
2017-Jun-14 19:30N 51°26' E 002°40'0 0.1
2017-Jun-14 19:00N 51°26' E 002°40'0 0.2
2017-Jun-14 18:30N 51°26' E 002°40'0 0.1
2017-Jun-14 18:00N 51°26' E 002°40'0 0.1
2017-Jun-14 17:30N 51°26' E 002°40'0 0.0
2017-Jun-14 17:00N 51°26' E 002°40'0 0.0
2017-Jun-14 16:30N 51°26' E 002°40'0 0.1
2017-Jun-14 15:30N 51°26' E 002°40'0 0.2
2017-Jun-14 15:00N 51°26' E 002°40'0 0.2
2017-Jun-14 14:31N 51°26' E 002°40'1010.5
2017-Jun-14 13:31N 51°21' E 002°25'815.0
2017-Jun-14 13:01N 51°18' E 002°14'815.9
2017-Jun-14 12:31N 51°21' E 002°03'917.4
2017-Jun-14 12:01N 51°27' E 001°52'815.5
2017-Jun-14 11:31N 51°34' E 001°45'918.1
2017-Jun-14 11:01N 51°43' E 001°45'815.8
2017-Jun-14 10:31N 51°50' E 001°40'5 9.8
2017-Jun-14 10:01N 51°53' E 001°34'510.8
2017-Jun-14 09:30N 51°56' E 001°27'5 9.8
2017-Jun-14 09:00N 51°56' E 001°19'1 2.4
2017-Jun-14 08:30N 51°58' E 001°18'0 0.0
2017-Jun-14 07:59N 51°58' E 001°18'0 0.0
2017-Jun-14 07:29N 51°58' E 001°18'0 0.0
2017-Jun-14 06:59N 51°58' E 001°18'0 0.0
2017-Jun-14 06:30N 51°58' E 001°18'0 0.0
2017-Jun-14 06:00N 51°58' E 001°18'0 0.0
2017-Jun-14 05:30N 51°58' E 001°18'0 0.0
2017-Jun-14 05:00N 51°58' E 001°18'0 0.0
2017-Jun-14 04:30N 51°58' E 001°18'0 0.0
2017-Jun-14 04:00N 51°58' E 001°18'0 0.0
2017-Jun-14 03:30N 51°58' E 001°18'0 0.0
2017-Jun-14 03:00N 51°58' E 001°18'0 0.0
2017-Jun-14 02:30N 51°58' E 001°18'0 0.0
2017-Jun-14 02:00N 51°58' E 001°18'0 0.0
2017-Jun-14 01:30N 51°58' E 001°18'0 0.0
2017-Jun-14 01:00N 51°58' E 001°18'0 0.0
2017-Jun-14 00:30N 51°58' E 001°18'0 0.0
2017-Jun-14 00:00N 51°58' E 001°18'0 0.0
2017-Jun-13 23:30N 51°58' E 001°18'0 0.0
2017-Jun-13 23:00N 51°58' E 001°18'0 0.0
2017-Jun-13 22:30N 51°58' E 001°18'0 0.0
2017-Jun-13 22:00N 51°58' E 001°18'0 0.0
2017-Jun-13 21:30N 51°58' E 001°18'0 0.0
2017-Jun-13 21:00N 51°58' E 001°18'0 0.0
2017-Jun-13 20:30N 51°58' E 001°18'0 0.0
2017-Jun-13 20:00N 51°58' E 001°18'1 1.5
2017-Jun-13 19:30N 51°57' E 001°19'3 5.1
2017-Jun-13 19:00N 51°56' E 001°22'510.4
2017-Jun-13 18:31N 51°57' E 001°31'611.3
2017-Jun-13 18:00N 51°52' E 001°36'3 6.0
2017-Jun-13 17:30N 51°53' E 001°40'2 3.9
2017-Jun-13 17:00N 51°55' E 001°42'0 0.1
2017-Jun-13 16:30N 51°55' E 001°42'0 0.1
2017-Jun-13 16:00N 51°55' E 001°42'1 2.3
2017-Jun-13 15:30N 51°54' E 001°43'715.0
2017-Jun-13 15:00N 51°47' E 001°48'1716.7
2017-Jun-13 14:00N 51°31' E 001°53'816.1
2017-Jun-13 13:30N 51°26' E 002°02'714.6
2017-Jun-13 13:00N 51°19' E 001°57'816.5
2017-Jun-13 12:30N 51°13' E 001°48'815.8
2017-Jun-13 12:00N 51°07' E 001°40'815.4
2017-Jun-13 11:30N 51°01' E 001°33'714.8
2017-Jun-13 11:00N 50°54' E 001°26'714.5
2017-Jun-13 10:31N 50°48' E 001°23'714.5
2017-Jun-13 10:00N 50°41' E 001°19'815.3
2017-Jun-13 09:30N 50°36' E 001°10'1215.3
2017-Jun-13 08:43N 50°28' E 000°55'315.4
2017-Jun-13 08:30N 50°27' E 000°50'815.5
2017-Jun-13 08:00N 50°25' E 000°39'815.3
2017-Jun-13 07:30N 50°23' E 000°27'815.0
2017-Jun-13 07:00N 50°20' E 000°16'815.4
2017-Jun-13 06:31N 50°18' E 000°05'816.8
2017-Jun-13 06:00N 50°13' W 000°07'714.2
2017-Jun-13 05:30N 50°07' W 000°11'815.4
2017-Jun-13 05:00N 49°59' W 000°11'815.6
2017-Jun-13 04:30N 49°51' W 000°12'815.7
2017-Jun-13 04:00N 49°44' W 000°11'815.7
2017-Jun-13 03:30N 49°36' W 000°11'612.8
2017-Jun-13 03:00N 49°31' W 000°04'713.8
2017-Jun-13 02:31N 49°29' E 000°05'3 5.3
2017-Jun-13 02:00N 49°28' E 000°09'0 0.0
2017-Jun-13 01:30N 49°28' E 000°09'0 0.0
2017-Jun-13 01:00N 49°28' E 000°09'0 0.0
2017-Jun-13 00:30N 49°28' E 000°09'0 0.0
2017-Jun-13 00:00N 49°28' E 000°09'0 0.0
2017-Jun-12 23:30N 49°28' E 000°09'0 0.0
2017-Jun-12 23:00N 49°28' E 000°09'0 0.0
2017-Jun-12 22:30N 49°28' E 000°09'0 0.0
2017-Jun-12 22:00N 49°28' E 000°09'0 0.0
2017-Jun-12 21:30N 49°28' E 000°09'0 0.0
2017-Jun-12 21:00N 49°28' E 000°09'0 0.0
2017-Jun-12 20:30N 49°28' E 000°09'0 0.0
2017-Jun-12 20:00N 49°28' E 000°09'0 0.0
2017-Jun-12 19:30N 49°28' E 000°09'0 0.0
2017-Jun-12 19:00N 49°28' E 000°09'0 0.0
2017-Jun-12 18:30N 49°28' E 000°09'0 0.0
2017-Jun-12 18:00N 49°28' E 000°09'0 0.0
2017-Jun-12 17:30N 49°28' E 000°09'0 0.0
2017-Jun-12 17:00N 49°28' E 000°09'  
Track history (hours):
 
Tides and Currents Weather Stations Pressure Air Temp Water Temp Dewpoint Dewpoint Depression Visibility Wind Speed Wind Dir Waves Ship Positions

MSC Suez

Last reported at 2017-Jun-22 16:30 UTC. Time now 2017-Jun-24 12:09 UTC.
Position N 24°38' W 016°24'.

Length 237 m; draft 10.6 m.

Type: Ship. MMSI: 355289000.

Date/timePositionNaut miles runAvg speedWind from/ knotsBaromVisibWave heightAir tempDewpointWater temp
2017-Jun-22 16:30N 24°38' W 016°24'5612.1
2017-Jun-22 11:55N 25°31' W 016°03'812.5
2017-Jun-22 11:16N 25°38' W 016°00'512.4
2017-Jun-22 10:51N 25°43' W 015°58'512.5
2017-Jun-22 10:29N 25°47' W 015°56'912.5
2017-Jun-22 09:46N 25°56' W 015°53'312.6
2017-Jun-22 09:30N 25°59' W 015°52'612.5
2017-Jun-22 09:00N 26°05' W 015°49'816.0
2017-Jun-22 08:30N 26°12' W 015°46'918.7
2017-Jun-22 08:00N 26°21' W 015°43'917.2
2017-Jun-22 07:30N 26°29' W 015°40'916.9
2017-Jun-22 06:58N 26°38' W 015°36'816.8
2017-Jun-22 06:31N 26°45' W 015°33'1916.9
2017-Jun-22 05:24N 27°03' W 015°27'817.1
2017-Jun-22 04:56N 27°10' W 015°24'1117.3
2017-Jun-22 04:19N 27°20' W 015°20'517.4
2017-Jun-22 04:00N 27°26' W 015°18'917.3
2017-Jun-22 03:30N 27°34' W 015°15'917.4
2017-Jun-22 03:00N 27°42' W 015°12'917.5
2017-Jun-22 02:30N 27°50' W 015°08'917.2
2017-Jun-22 02:00N 27°58' W 015°05'816.8
2017-Jun-22 01:30N 28°06' W 015°01'816.8
2017-Jun-22 01:00N 28°14' W 014°59'816.5
2017-Jun-22 00:30N 28°22' W 014°56'816.4
2017-Jun-22 00:00N 28°30' W 014°54'916.5
2017-Jun-21 23:28N 28°39' W 014°51'816.6
2017-Jun-21 23:01N 28°46' W 014°49'816.4
2017-Jun-21 22:30N 28°54' W 014°47'816.2
2017-Jun-21 22:01N 29°02' W 014°44'916.3
2017-Jun-21 21:28N 29°10' W 014°42'816.1
2017-Jun-21 20:57N 29°18' W 014°39'715.9
2017-Jun-21 20:30N 29°25' W 014°37'815.6
2017-Jun-21 20:00N 29°33' W 014°35'815.6
2017-Jun-21 19:30N 29°41' W 014°33'714.4
2017-Jun-21 19:00N 29°47' W 014°31'611.6
2017-Jun-21 18:30N 29°53' W 014°29'711.8
2017-Jun-21 17:54N 30°00' W 014°27'512.0
2017-Jun-21 17:30N 30°05' W 014°26'611.9
2017-Jun-21 17:00N 30°10' W 014°25'612.1
2017-Jun-21 16:30N 30°16' W 014°23'611.9
2017-Jun-21 15:58N 30°23' W 014°21'612.3
2017-Jun-21 15:27N 30°29' W 014°19'612.1
2017-Jun-21 14:58N 30°34' W 014°18'43413.8
2017-Jun-20 07:32N 37°36' W 012°15'118.2
2017-Jun-20 07:30N 37°37' W 012°15'10116.4
2017-Jun-20 01:19N 39°15' W 011°45'516.3
2017-Jun-20 01:00N 39°20' W 011°43'1216.2
2017-Jun-20 00:16N 39°32' W 011°39'716.3
2017-Jun-19 23:50N 39°39' W 011°37'516.5
2017-Jun-19 23:30N 39°44' W 011°36'816.6
2017-Jun-19 23:01N 39°52' W 011°33'816.8
2017-Jun-19 22:30N 40°00' W 011°30'816.9
2017-Jun-19 22:00N 40°08' W 011°28'816.8
2017-Jun-19 21:31N 40°17' W 011°25'816.7
2017-Jun-19 21:00N 40°25' W 011°23'816.6
2017-Jun-19 20:30N 40°33' W 011°20'816.5
2017-Jun-19 20:00N 40°41' W 011°17'916.8
2017-Jun-19 19:28N 40°50' W 011°15'816.5
2017-Jun-19 19:00N 40°57' W 011°12'916.3
2017-Jun-19 18:29N 41°05' W 011°09'613.2
2017-Jun-19 18:00N 41°11' W 011°07'611.8
2017-Jun-19 17:29N 41°17' W 011°06'611.6
2017-Jun-19 17:00N 41°23' W 011°04'611.5
2017-Jun-19 16:30N 41°29' W 011°02'711.8
2017-Jun-19 15:54N 41°35' W 010°60'11312.6
2017-Jun-19 06:56N 43°25' W 010°24'716.5
2017-Jun-19 06:30N 43°32' W 010°22'1416.4
2017-Jun-19 05:37N 43°46' W 010°17'316.2
2017-Jun-19 05:28N 43°49' W 010°16'1216.2
2017-Jun-19 04:44N 43°59' W 010°08'1316.3
2017-Jun-19 03:56N 44°10' W 009°59'716.0
2017-Jun-19 03:30N 44°16' W 009°53'916.2
2017-Jun-19 02:57N 44°23' W 009°46'31214.2
2017-Jun-18 04:57N 48°50' W 005°50'716.4
2017-Jun-18 04:30N 48°56' W 005°43'816.9
2017-Jun-18 04:01N 48°60' W 005°32'917.0
2017-Jun-18 03:30N 49°04' W 005°21'817.0
2017-Jun-18 03:00N 49°09' W 005°10'816.9
2017-Jun-18 02:30N 49°13' W 004°59'816.6
2017-Jun-18 02:00N 49°17' W 004°48'816.4
2017-Jun-18 01:31N 49°22' W 004°37'816.1
2017-Jun-18 01:01N 49°26' W 004°27'815.8
2017-Jun-18 00:30N 49°30' W 004°16'815.7
2017-Jun-18 00:00N 49°34' W 004°06'815.6
2017-Jun-17 23:30N 49°38' W 003°55'815.6
2017-Jun-17 23:00N 49°42' W 003°45'815.7
2017-Jun-17 22:30N 49°46' W 003°35'816.0
2017-Jun-17 22:00N 49°50' W 003°24'816.3
2017-Jun-17 21:30N 49°54' W 003°13'816.8
2017-Jun-17 21:00N 49°58' W 003°02'917.2
2017-Jun-17 20:30N 50°01' W 002°49'917.9
2017-Jun-17 20:00N 50°03' W 002°36'918.3
2017-Jun-17 19:30N 50°06' W 002°22'918.6
2017-Jun-17 19:00N 50°08' W 002°08'918.6
2017-Jun-17 18:30N 50°10' W 001°54'918.3
2017-Jun-17 18:00N 50°13' W 001°40'917.8
2017-Jun-17 17:30N 50°15' W 001°27'917.3
2017-Jun-17 17:01N 50°17' W 001°13'816.7
2017-Jun-17 16:30N 50°19' W 001°01'815.9
2017-Jun-17 16:00N 50°21' W 000°49'815.3
2017-Jun-17 15:30N 50°23' W 000°37'815.1
2017-Jun-17 15:01N 50°25' W 000°26'714.9
2017-Jun-17 14:30N 50°27' W 000°14'1514.9
2017-Jun-17 13:30N 50°31' E 000°08'715.0
2017-Jun-17 13:00N 50°33' E 000°20'815.3
2017-Jun-17 12:30N 50°35' E 000°31'816.0
2017-Jun-17 12:00N 50°39' E 000°42'916.8
2017-Jun-17 11:28N 50°44' E 000°54'817.4
2017-Jun-17 11:00N 50°48' E 001°05'917.6
2017-Jun-17 10:30N 50°53' E 001°16'918.1
2017-Jun-17 10:00N 51°00' E 001°25'917.0
2017-Jun-17 09:30N 51°06' E 001°35'816.4
2017-Jun-17 09:00N 51°12' E 001°45'815.9
2017-Jun-17 08:30N 51°18' E 001°51'715.0
2017-Jun-17 08:00N 51°24' E 001°59'714.8
2017-Jun-17 07:30N 51°22' E 002°10'714.8
2017-Jun-17 07:00N 51°22' E 002°22'715.0
2017-Jun-17 06:30N 51°23' E 002°34'713.6
2017-Jun-17 06:01N 51°23' E 002°45'611.8
2017-Jun-17 05:31N 51°23' E 002°54'815.5
2017-Jun-17 05:01N 51°24' E 003°06'815.2
2017-Jun-17 04:30N 51°24' E 003°18'714.8
2017-Jun-17 04:00N 51°25' E 003°30'5 9.1
2017-Jun-17 03:30N 51°26' E 003°37'611.3
2017-Jun-17 03:00N 51°22' E 003°44'612.6
2017-Jun-17 02:30N 51°22' E 003°54'612.2
2017-Jun-17 02:01N 51°26' E 004°01'611.1
2017-Jun-17 01:30N 51°22' E 004°08'5 9.9
2017-Jun-17 01:00N 51°21' E 004°16'3 6.7
2017-Jun-17 00:30N 51°17' E 004°15'0 0.8
2017-Jun-16 23:58N 51°17' E 004°15'0 0.0
2017-Jun-16 23:25N 51°17' E 004°15'0 0.0
2017-Jun-16 23:00N 51°17' E 004°15'0 0.0
2017-Jun-16 22:30N 51°17' E 004°15'0 0.0
2017-Jun-16 22:00N 51°17' E 004°15'0 0.0
2017-Jun-16 21:30N 51°17' E 004°15'0 0.0
2017-Jun-16 21:00N 51°17' E 004°15'0 0.0
2017-Jun-16 20:30N 51°17' E 004°15'0 0.0
2017-Jun-16 20:00N 51°17' E 004°15'0 0.0
2017-Jun-16 19:30N 51°17' E 004°15'0 0.0
2017-Jun-16 19:00N 51°17' E 004°15'0 0.0
2017-Jun-16 18:31N 51°17' E 004°15'0 0.0
2017-Jun-16 18:00N 51°17' E 004°15'0 0.0
2017-Jun-16 17:30N 51°17' E 004°15'0 0.0
2017-Jun-16 17:00N 51°17' E 004°15'0 0.0
2017-Jun-16 16:30N 51°17' E 004°15'0 0.0
2017-Jun-16 16:00N 51°17' E 004°15'0 0.0
2017-Jun-16 15:30N 51°17' E 004°15'0 0.0
2017-Jun-16 15:00N 51°17' E 004°15'1 1.1
2017-Jun-16 14:30N 51°17' E 004°16'1 0.7
2017-Jun-16 13:30N 51°18' E 004°16'0 0.0
2017-Jun-16 13:00N 51°18' E 004°16'0 0.0
2017-Jun-16 12:30N 51°18' E 004°16'0 0.0
2017-Jun-16 12:00N 51°18' E 004°16'0 0.0
2017-Jun-16 11:30N 51°18' E 004°16'0 0.0
2017-Jun-16 11:00N 51°18' E 004°16'0 0.0
2017-Jun-16 10:30N 51°18' E 004°16'0 0.0
2017-Jun-16 10:00N 51°18' E 004°16'0 0.0
2017-Jun-16 09:30N 51°18' E 004°16'0 0.0
2017-Jun-16 09:00N 51°18' E 004°16'0 0.0
2017-Jun-16 08:30N 51°18' E 004°16'0 0.0
2017-Jun-16 07:54N 51°18' E 004°16'0 0.0
2017-Jun-16 07:30N 51°18' E 004°16'0 0.0
2017-Jun-16 07:00N 51°18' E 004°16'0 0.0
2017-Jun-16 06:27N 51°18' E 004°16'0 0.0
2017-Jun-16 06:00N 51°18' E 004°16'0 0.0
2017-Jun-16 05:30N 51°18' E 004°16'0 0.0
2017-Jun-16 05:00N 51°18' E 004°16'0 0.0
2017-Jun-16 04:30N 51°18' E 004°16'0 0.0
2017-Jun-16 03:57N 51°18' E 004°16'0 0.0
2017-Jun-16 03:30N 51°18' E 004°16'0 0.0
2017-Jun-16 03:00N 51°18' E 004°16'0 0.0
2017-Jun-16 02:30N 51°18' E 004°16'0 0.0
2017-Jun-16 02:00N 51°18' E 004°16'0 0.0
2017-Jun-16 01:30N 51°18' E 004°16'0 0.0
2017-Jun-16 01:00N 51°18' E 004°16'0 0.0
2017-Jun-16 00:27N 51°18' E 004°16'0 0.0
2017-Jun-16 00:00N 51°18' E 004°16'0 0.0
2017-Jun-15 23:30N 51°18' E 004°16'0 0.0
2017-Jun-15 23:00N 51°18' E 004°16'0 0.0
2017-Jun-15 22:30N 51°18' E 004°16'0 0.0
2017-Jun-15 22:00N 51°18' E 004°16'0 0.0
2017-Jun-15 21:30N 51°18' E 004°16'0 0.0
2017-Jun-15 20:57N 51°18' E 004°16'0 0.0
2017-Jun-15 20:30N 51°18' E 004°16'0 0.0
2017-Jun-15 20:00N 51°18' E 004°16'0 0.0
2017-Jun-15 19:30N 51°18' E 004°16'1 1.7
2017-Jun-15 19:00N 51°19' E 004°16'3 6.8
2017-Jun-15 18:30N 51°22' E 004°13'4 7.8
2017-Jun-15 18:00N 51°22' E 004°07'5 9.5
2017-Jun-15 17:30N 51°25' E 004°02'510.8
2017-Jun-15 17:00N 51°22' E 003°55'612.1
2017-Jun-15 16:30N 51°22' E 003°45'612.1
2017-Jun-15 16:00N 51°26' E 003°39'917.1
2017-Jun-15 15:30N 51°25' E 003°26'918.6
2017-Jun-15 15:01N 51°24' E 003°11'1616.1
2017-Jun-15 14:00N 51°24' E 002°45'4 7.4
2017-Jun-15 13:31N 51°26' E 002°41'1 1.0
2017-Jun-15 13:00N 51°26' E 002°40'0 0.1
2017-Jun-15 12:30N 51°26' E 002°40'0 0.1
2017-Jun-15 12:00N 51°26' E 002°40'0 0.1
2017-Jun-15 11:30N 51°26' E 002°40'0 0.0
2017-Jun-15 11:00N 51°26' E 002°40'0 0.0
2017-Jun-15 10:30N 51°26' E 002°40'0 0.3
2017-Jun-15 10:00N 51°26' E 002°40'0 0.3
2017-Jun-15 09:30N 51°26' E 002°40'0 0.1
2017-Jun-15 09:00N 51°26' E 002°40'0 0.1
2017-Jun-15 08:30N 51°26' E 002°40'0 0.0
2017-Jun-15 08:00N 51°26' E 002°40'0 0.0
2017-Jun-15 07:30N 51°26' E 002°40'0 0.0
2017-Jun-15 07:00N 51°26' E 002°40'0 0.1
2017-Jun-15 06:30N 51°26' E 002°40'0 0.0
2017-Jun-15 06:00N 51°26' E 002°40'0 0.0
2017-Jun-15 05:30N 51°26' E 002°40'0 0.0
2017-Jun-15 05:00N 51°26' E 002°40'0 0.0
2017-Jun-15 04:30N 51°26' E 002°40'0 0.0
2017-Jun-15 04:00N 51°26' E 002°40'0 0.0
2017-Jun-15 03:27N 51°26' E 002°40'0 0.0
2017-Jun-15 03:00N 51°26' E 002°40'0 0.2
2017-Jun-15 02:30N 51°26' E 002°40'0 0.3
2017-Jun-15 02:00N 51°26' E 002°40'0 0.3
2017-Jun-15 01:30N 51°26' E 002°40'0 0.1
2017-Jun-15 01:00N 51°26' E 002°40'0 0.0
2017-Jun-15 00:30N 51°26' E 002°40'0 0.0
2017-Jun-15 00:00N 51°26' E 002°40'0 0.0
2017-Jun-14 23:30N 51°26' E 002°40'0 0.0
2017-Jun-14 23:00N 51°26' E 002°40'0 0.0
2017-Jun-14 22:30N 51°26' E 002°40'0 0.0
2017-Jun-14 22:00N 51°26' E 002°40'0 0.0
2017-Jun-14 21:30N 51°26' E 002°40'0 0.0
2017-Jun-14 21:00N 51°26' E 002°40'0 0.0
2017-Jun-14 20:30N 51°26' E 002°40'0 0.0
2017-Jun-14 20:00N 51°26' E 002°40'0 0.0
2017-Jun-14 19:30N 51°26' E 002°40'0 0.1
2017-Jun-14 19:00N 51°26' E 002°40'0 0.2
2017-Jun-14 18:30N 51°26' E 002°40'0 0.1
2017-Jun-14 18:00N 51°26' E 002°40'0 0.1
2017-Jun-14 17:30N 51°26' E 002°40'0 0.0
2017-Jun-14 17:00N 51°26' E 002°40'0 0.0
2017-Jun-14 16:30N 51°26' E 002°40'0 0.1
2017-Jun-14 15:30N 51°26' E 002°40'0 0.2
2017-Jun-14 15:00N 51°26' E 002°40'0 0.2
2017-Jun-14 14:31N 51°26' E 002°40'1010.5
2017-Jun-14 13:31N 51°21' E 002°25'815.0
2017-Jun-14 13:01N 51°18' E 002°14'815.9
2017-Jun-14 12:31N 51°21' E 002°03'917.4
2017-Jun-14 12:01N 51°27' E 001°52'815.5
2017-Jun-14 11:31N 51°34' E 001°45'918.1
2017-Jun-14 11:01N 51°43' E 001°45'815.8
2017-Jun-14 10:31N 51°50' E 001°40'5 9.8
2017-Jun-14 10:01N 51°53' E 001°34'510.8
2017-Jun-14 09:30N 51°56' E 001°27'5 9.8
2017-Jun-14 09:00N 51°56' E 001°19'1 2.4
2017-Jun-14 08:30N 51°58' E 001°18'0 0.0
2017-Jun-14 07:59N 51°58' E 001°18'0 0.0
2017-Jun-14 07:29N 51°58' E 001°18'0 0.0
2017-Jun-14 06:59N 51°58' E 001°18'0 0.0
2017-Jun-14 06:30N 51°58' E 001°18'0 0.0
2017-Jun-14 06:00N 51°58' E 001°18'0 0.0
2017-Jun-14 05:30N 51°58' E 001°18'0 0.0
2017-Jun-14 05:00N 51°58' E 001°18'0 0.0
2017-Jun-14 04:30N 51°58' E 001°18'0 0.0
2017-Jun-14 04:00N 51°58' E 001°18'0 0.0
2017-Jun-14 03:30N 51°58' E 001°18'0 0.0
2017-Jun-14 03:00N 51°58' E 001°18'0 0.0
2017-Jun-14 02:30N 51°58' E 001°18'0 0.0
2017-Jun-14 02:00N 51°58' E 001°18'0 0.0
2017-Jun-14 01:30N 51°58' E 001°18'0 0.0
2017-Jun-14 01:00N 51°58' E 001°18'0 0.0
2017-Jun-14 00:30N 51°58' E 001°18'0 0.0
2017-Jun-14 00:00N 51°58' E 001°18'0 0.0
2017-Jun-13 23:30N 51°58' E 001°18'0 0.0
2017-Jun-13 23:00N 51°58' E 001°18'0 0.0
2017-Jun-13 22:30N 51°58' E 001°18'0 0.0
2017-Jun-13 22:00N 51°58' E 001°18'0 0.0
2017-Jun-13 21:30N 51°58' E 001°18'0 0.0
2017-Jun-13 21:00N 51°58' E 001°18'0 0.0
2017-Jun-13 20:30N 51°58' E 001°18'0 0.0
2017-Jun-13 20:00N 51°58' E 001°18'1 1.5
2017-Jun-13 19:30N 51°57' E 001°19'3 5.1
2017-Jun-13 19:00N 51°56' E 001°22'510.4
2017-Jun-13 18:31N 51°57' E 001°31'611.3
2017-Jun-13 18:00N 51°52' E 001°36'3 6.0
2017-Jun-13 17:30N 51°53' E 001°40'2 3.9
2017-Jun-13 17:00N 51°55' E 001°42'0 0.1
2017-Jun-13 16:30N 51°55' E 001°42'0 0.1
2017-Jun-13 16:00N 51°55' E 001°42'1 2.3
2017-Jun-13 15:30N 51°54' E 001°43'715.0
2017-Jun-13 15:00N 51°47' E 001°48'1716.7
2017-Jun-13 14:00N 51°31' E 001°53'816.1
2017-Jun-13 13:30N 51°26' E 002°02'714.6
2017-Jun-13 13:00N 51°19' E 001°57'816.5
2017-Jun-13 12:30N 51°13' E 001°48'815.8
2017-Jun-13 12:00N 51°07' E 001°40'815.4
2017-Jun-13 11:30N 51°01' E 001°33'714.8
2017-Jun-13 11:00N 50°54' E 001°26'714.5
2017-Jun-13 10:31N 50°48' E 001°23'714.5
2017-Jun-13 10:00N 50°41' E 001°19'815.3
2017-Jun-13 09:30N 50°36' E 001°10'1215.3
2017-Jun-13 08:43N 50°28' E 000°55'315.4
2017-Jun-13 08:30N 50°27' E 000°50'815.5
2017-Jun-13 08:00N 50°25' E 000°39'815.3
2017-Jun-13 07:30N 50°23' E 000°27'815.0
2017-Jun-13 07:00N 50°20' E 000°16'815.4
2017-Jun-13 06:31N 50°18' E 000°05'816.8
2017-Jun-13 06:00N 50°13' W 000°07'714.2
2017-Jun-13 05:30N 50°07' W 000°11'815.4
2017-Jun-13 05:00N 49°59' W 000°11'815.6
2017-Jun-13 04:30N 49°51' W 000°12'815.7
2017-Jun-13 04:00N 49°44' W 000°11'815.7
2017-Jun-13 03:30N 49°36' W 000°11'612.8
2017-Jun-13 03:00N 49°31' W 000°04'713.8
2017-Jun-13 02:31N 49°29' E 000°05'3 5.3
2017-Jun-13 02:00N 49°28' E 000°09'0 0.0
2017-Jun-13 01:30N 49°28' E 000°09'0 0.0
2017-Jun-13 01:00N 49°28' E 000°09'0 0.0
2017-Jun-13 00:30N 49°28' E 000°09'0 0.0
2017-Jun-13 00:00N 49°28' E 000°09'0 0.0
2017-Jun-12 23:30N 49°28' E 000°09'0 0.0
2017-Jun-12 23:00N 49°28' E 000°09'0 0.0
2017-Jun-12 22:30N 49°28' E 000°09'0 0.0
2017-Jun-12 22:00N 49°28' E 000°09'0 0.0
2017-Jun-12 21:30N 49°28' E 000°09'0 0.0
2017-Jun-12 21:00N 49°28' E 000°09'0 0.0
2017-Jun-12 20:30N 49°28' E 000°09'0 0.0
2017-Jun-12 20:00N 49°28' E 000°09'0 0.0
2017-Jun-12 19:30N 49°28' E 000°09'0 0.0
2017-Jun-12 19:00N 49°28' E 000°09'0 0.0
2017-Jun-12 18:30N 49°28' E 000°09'0 0.0
2017-Jun-12 18:00N 49°28' E 000°09'0 0.0
2017-Jun-12 17:30N 49°28' E 000°09'0 0.0
2017-Jun-12 17:00N 49°28' E 000°09'  

Dump ship's entire track history